sensor_id;sensor_type;location;lat;lon;timestamp;temperature;humidity
6988;DHT22;3534;49.960;8.018;2023-08-20T00:00:30;24.80;99.90
6988;DHT22;3534;49.960;8.018;2023-08-20T00:03:01;24.80;99.90
6988;DHT22;3534;49.960;8.018;2023-08-20T00:05:30;24.80;99.90
6988;DHT22;3534;49.960;8.018;2023-08-20T00:07:57;24.80;99.90
6988;DHT22;3534;49.960;8.018;2023-08-20T00:10:23;24.80;99.90
6988;DHT22;3534;49.960;8.018;2023-08-20T00:12:50;24.80;99.90
6988;DHT22;3534;49.960;8.018;2023-08-20T00:15:18;24.80;99.90
6988;DHT22;3534;49.960;8.018;2023-08-20T00:17:45;24.70;99.90
6988;DHT22;3534;49.960;8.018;2023-08-20T00:20:14;24.70;99.90
6988;DHT22;3534;49.960;8.018;2023-08-20T00:22:42;24.70;99.90
6988;DHT22;3534;49.960;8.018;2023-08-20T00:25:11;24.70;99.90
6988;DHT22;3534;49.960;8.018;2023-08-20T00:27:38;24.70;99.90
6988;DHT22;3534;49.960;8.018;2023-08-20T00:30:06;24.70;99.90
6988;DHT22;3534;49.960;8.018;2023-08-20T00:32:34;24.70;99.90
6988;DHT22;3534;49.960;8.018;2023-08-20T00:35:01;24.70;99.90
6988;DHT22;3534;49.960;8.018;2023-08-20T00:37:28;24.70;99.90
6988;DHT22;3534;49.960;8.018;2023-08-20T00:39:55;24.60;99.90
6988;DHT22;3534;49.960;8.018;2023-08-20T00:42:22;24.60;99.90
6988;DHT22;3534;49.960;8.018;2023-08-20T00:44:50;24.60;99.90
6988;DHT22;3534;49.960;8.018;2023-08-20T00:47:18;24.60;99.90
6988;DHT22;3534;49.960;8.018;2023-08-20T00:49:47;24.60;99.90
6988;DHT22;3534;49.960;8.018;2023-08-20T00:52:15;24.50;99.90
6988;DHT22;3534;49.960;8.018;2023-08-20T00:54:44;24.50;99.90
6988;DHT22;3534;49.960;8.018;2023-08-20T00:57:13;24.40;99.90
6988;DHT22;3534;49.960;8.018;2023-08-20T00:59:39;24.40;99.90
6988;DHT22;3534;49.960;8.018;2023-08-20T01:02:06;24.40;99.90
6988;DHT22;3534;49.960;8.018;2023-08-20T01:04:33;24.40;99.90
6988;DHT22;3534;49.960;8.018;2023-08-20T01:07:07;24.40;99.90
6988;DHT22;3534;49.960;8.018;2023-08-20T01:12:26;24.30;99.90
6988;DHT22;3534;49.960;8.018;2023-08-20T01:14:52;24.30;99.90
6988;DHT22;3534;49.960;8.018;2023-08-20T01:17:19;24.30;99.90
6988;DHT22;3534;49.960;8.018;2023-08-20T01:19:46;24.20;99.90
6988;DHT22;3534;49.960;8.018;2023-08-20T01:22:33;24.20;99.90
6988;DHT22;3534;49.960;8.018;2023-08-20T01:25:08;24.20;99.90
6988;DHT22;3534;49.960;8.018;2023-08-20T01:27:43;24.20;99.90
6988;DHT22;3534;49.960;8.018;2023-08-20T01:30:15;24.10;99.90
6988;DHT22;3534;49.960;8.018;2023-08-20T01:32:42;24.10;99.90
6988;DHT22;3534;49.960;8.018;2023-08-20T01:35:12;24.10;99.90
6988;DHT22;3534;49.960;8.018;2023-08-20T01:37:39;24.10;99.90
6988;DHT22;3534;49.960;8.018;2023-08-20T01:40:07;24.10;99.90
6988;DHT22;3534;49.960;8.018;2023-08-20T01:42:36;24.00;99.90
6988;DHT22;3534;49.960;8.018;2023-08-20T01:45:04;24.00;99.90
6988;DHT22;3534;49.960;8.018;2023-08-20T01:47:32;24.00;99.90
6988;DHT22;3534;49.960;8.018;2023-08-20T01:49:59;24.00;99.90
6988;DHT22;3534;49.960;8.018;2023-08-20T01:52:26;24.00;99.90
6988;DHT22;3534;49.960;8.018;2023-08-20T01:54:52;24.00;99.90
6988;DHT22;3534;49.960;8.018;2023-08-20T01:57:19;24.00;99.90
6988;DHT22;3534;49.960;8.018;2023-08-20T01:59:47;24.00;99.90
6988;DHT22;3534;49.960;8.018;2023-08-20T02:02:14;23.90;99.90
6988;DHT22;3534;49.960;8.018;2023-08-20T02:04:42;23.90;99.90
6988;DHT22;3534;49.960;8.018;2023-08-20T02:07:09;23.90;99.90
6988;DHT22;3534;49.960;8.018;2023-08-20T02:09:36;23.90;99.90
6988;DHT22;3534;49.960;8.018;2023-08-20T02:12:03;23.90;99.90
6988;DHT22;3534;49.960;8.018;2023-08-20T02:14:30;23.90;99.90
6988;DHT22;3534;49.960;8.018;2023-08-20T02:17:00;23.90;99.90
6988;DHT22;3534;49.960;8.018;2023-08-20T02:19:27;23.90;99.90
6988;DHT22;3534;49.960;8.018;2023-08-20T02:21:55;23.90;99.90
6988;DHT22;3534;49.960;8.018;2023-08-20T02:24:21;23.80;99.90
6988;DHT22;3534;49.960;8.018;2023-08-20T02:26:48;23.80;99.90
6988;DHT22;3534;49.960;8.018;2023-08-20T02:29:15;23.80;99.90
6988;DHT22;3534;49.960;8.018;2023-08-20T02:31:41;23.80;99.90
6988;DHT22;3534;49.960;8.018;2023-08-20T02:34:08;23.80;99.90
6988;DHT22;3534;49.960;8.018;2023-08-20T02:36:35;23.80;99.90
6988;DHT22;3534;49.960;8.018;2023-08-20T02:39:03;23.70;99.90
6988;DHT22;3534;49.960;8.018;2023-08-20T02:41:33;23.70;99.90
6988;DHT22;3534;49.960;8.018;2023-08-20T02:43:59;23.70;99.90
6988;DHT22;3534;49.960;8.018;2023-08-20T02:46:26;23.60;99.90
6988;DHT22;3534;49.960;8.018;2023-08-20T02:48:53;23.60;99.90
6988;DHT22;3534;49.960;8.018;2023-08-20T02:51:20;23.60;99.90
6988;DHT22;3534;49.960;8.018;2023-08-20T02:53:46;23.50;99.90
6988;DHT22;3534;49.960;8.018;2023-08-20T02:56:14;23.50;99.90
6988;DHT22;3534;49.960;8.018;2023-08-20T02:58:41;23.40;99.90
6988;DHT22;3534;49.960;8.018;2023-08-20T03:01:17;23.40;99.90
6988;DHT22;3534;49.960;8.018;2023-08-20T03:03:44;23.40;99.90
6988;DHT22;3534;49.960;8.018;2023-08-20T03:06:11;23.40;99.90
6988;DHT22;3534;49.960;8.018;2023-08-20T03:08:38;23.40;99.90
6988;DHT22;3534;49.960;8.018;2023-08-20T03:11:04;23.30;99.90
6988;DHT22;3534;49.960;8.018;2023-08-20T03:13:32;23.30;99.90
6988;DHT22;3534;49.960;8.018;2023-08-20T03:15:59;23.30;99.90
6988;DHT22;3534;49.960;8.018;2023-08-20T03:18:26;23.30;99.90
6988;DHT22;3534;49.960;8.018;2023-08-20T03:20:54;23.30;99.90
6988;DHT22;3534;49.960;8.018;2023-08-20T03:23:21;23.20;99.90
6988;DHT22;3534;49.960;8.018;2023-08-20T03:25:47;23.20;99.90
6988;DHT22;3534;49.960;8.018;2023-08-20T03:28:15;23.20;99.90
6988;DHT22;3534;49.960;8.018;2023-08-20T03:30:43;23.20;99.90
6988;DHT22;3534;49.960;8.018;2023-08-20T03:33:10;23.20;99.90
6988;DHT22;3534;49.960;8.018;2023-08-20T03:35:36;23.10;99.90
6988;DHT22;3534;49.960;8.018;2023-08-20T03:38:03;23.10;99.90
6988;DHT22;3534;49.960;8.018;2023-08-20T03:40:30;23.10;99.90
6988;DHT22;3534;49.960;8.018;2023-08-20T03:42:57;23.10;99.90
6988;DHT22;3534;49.960;8.018;2023-08-20T03:45:24;23.10;99.90
6988;DHT22;3534;49.960;8.018;2023-08-20T03:47:52;23.00;99.90
6988;DHT22;3534;49.960;8.018;2023-08-20T03:50:18;23.00;99.90
6988;DHT22;3534;49.960;8.018;2023-08-20T03:52:45;23.00;99.90
6988;DHT22;3534;49.960;8.018;2023-08-20T03:55:12;23.00;99.90
6988;DHT22;3534;49.960;8.018;2023-08-20T03:57:38;23.00;99.90
6988;DHT22;3534;49.960;8.018;2023-08-20T04:00:06;23.00;99.90
6988;DHT22;3534;49.960;8.018;2023-08-20T04:02:35;23.00;99.90
6988;DHT22;3534;49.960;8.018;2023-08-20T04:05:03;23.00;99.90
6988;DHT22;3534;49.960;8.018;2023-08-20T04:07:30;23.00;99.90
6988;DHT22;3534;49.960;8.018;2023-08-20T04:09:57;22.90;99.90
6988;DHT22;3534;49.960;8.018;2023-08-20T04:12:24;22.90;99.90
6988;DHT22;3534;49.960;8.018;2023-08-20T04:14:50;22.90;99.90
6988;DHT22;3534;49.960;8.018;2023-08-20T04:17:17;22.90;99.90
6988;DHT22;3534;49.960;8.018;2023-08-20T04:19:44;22.90;99.90
6988;DHT22;3534;49.960;8.018;2023-08-20T04:22:12;22.90;99.90
6988;DHT22;3534;49.960;8.018;2023-08-20T04:24:39;22.90;99.90
6988;DHT22;3534;49.960;8.018;2023-08-20T04:27:06;22.90;99.90
6988;DHT22;3534;49.960;8.018;2023-08-20T04:29:33;22.90;99.90
6988;DHT22;3534;49.960;8.018;2023-08-20T04:32:00;22.90;99.90
6988;DHT22;3534;49.960;8.018;2023-08-20T04:34:26;22.90;99.90
6988;DHT22;3534;49.960;8.018;2023-08-20T04:36:53;22.90;99.90
6988;DHT22;3534;49.960;8.018;2023-08-20T04:39:21;22.90;99.90
6988;DHT22;3534;49.960;8.018;2023-08-20T04:41:48;22.90;99.90
6988;DHT22;3534;49.960;8.018;2023-08-20T04:44:15;22.80;99.90
6988;DHT22;3534;49.960;8.018;2023-08-20T04:46:42;22.90;99.90
6988;DHT22;3534;49.960;8.018;2023-08-20T04:49:09;22.90;99.90
6988;DHT22;3534;49.960;8.018;2023-08-20T04:51:35;22.90;99.90
6988;DHT22;3534;49.960;8.018;2023-08-20T04:54:03;22.90;99.90
6988;DHT22;3534;49.960;8.018;2023-08-20T04:56:31;22.90;99.90
6988;DHT22;3534;49.960;8.018;2023-08-20T04:58:57;22.90;99.90
6988;DHT22;3534;49.960;8.018;2023-08-20T05:01:24;22.90;99.90
6988;DHT22;3534;49.960;8.018;2023-08-20T05:03:51;22.80;99.90
6988;DHT22;3534;49.960;8.018;2023-08-20T05:06:17;22.90;99.90
6988;DHT22;3534;49.960;8.018;2023-08-20T05:08:44;22.90;99.90
6988;DHT22;3534;49.960;8.018;2023-08-20T05:11:11;22.90;99.90
6988;DHT22;3534;49.960;8.018;2023-08-20T05:13:39;22.90;99.90
6988;DHT22;3534;49.960;8.018;2023-08-20T05:16:05;22.90;99.90
6988;DHT22;3534;49.960;8.018;2023-08-20T05:18:32;23.00;99.90
6988;DHT22;3534;49.960;8.018;2023-08-20T05:20:59;23.00;99.90
6988;DHT22;3534;49.960;8.018;2023-08-20T05:23:25;23.00;99.90
6988;DHT22;3534;49.960;8.018;2023-08-20T05:25:52;23.00;99.90
6988;DHT22;3534;49.960;8.018;2023-08-20T05:28:19;23.00;99.90
6988;DHT22;3534;49.960;8.018;2023-08-20T05:30:54;23.10;99.90
6988;DHT22;3534;49.960;8.018;2023-08-20T05:33:21;23.10;99.90
6988;DHT22;3534;49.960;8.018;2023-08-20T05:35:48;23.10;99.90
6988;DHT22;3534;49.960;8.018;2023-08-20T05:38:15;23.10;99.90
6988;DHT22;3534;49.960;8.018;2023-08-20T05:40:41;23.10;99.90
6988;DHT22;3534;49.960;8.018;2023-08-20T05:43:08;23.10;99.90
6988;DHT22;3534;49.960;8.018;2023-08-20T05:45:35;23.10;99.90
6988;DHT22;3534;49.960;8.018;2023-08-20T05:48:03;23.10;99.90
6988;DHT22;3534;49.960;8.018;2023-08-20T05:50:30;23.10;99.90
6988;DHT22;3534;49.960;8.018;2023-08-20T05:52:57;23.20;99.90
6988;DHT22;3534;49.960;8.018;2023-08-20T05:55:24;23.20;99.90
6988;DHT22;3534;49.960;8.018;2023-08-20T05:57:51;23.20;99.90
6988;DHT22;3534;49.960;8.018;2023-08-20T06:00:17;23.20;99.90
6988;DHT22;3534;49.960;8.018;2023-08-20T06:02:44;23.20;99.90
6988;DHT22;3534;49.960;8.018;2023-08-20T06:05:12;23.20;99.90
6988;DHT22;3534;49.960;8.018;2023-08-20T06:07:39;23.20;99.90
6988;DHT22;3534;49.960;8.018;2023-08-20T06:10:07;23.20;99.90
6988;DHT22;3534;49.960;8.018;2023-08-20T06:12:34;23.30;99.90
6988;DHT22;3534;49.960;8.018;2023-08-20T06:15:00;23.30;99.90
6988;DHT22;3534;49.960;8.018;2023-08-20T06:17:27;23.30;99.90
6988;DHT22;3534;49.960;8.018;2023-08-20T06:19:54;23.30;99.90
6988;DHT22;3534;49.960;8.018;2023-08-20T06:22:22;23.40;99.90
6988;DHT22;3534;49.960;8.018;2023-08-20T06:24:49;23.40;99.90
6988;DHT22;3534;49.960;8.018;2023-08-20T06:27:15;23.40;99.90
6988;DHT22;3534;49.960;8.018;2023-08-20T06:29:42;23.40;99.90
6988;DHT22;3534;49.960;8.018;2023-08-20T06:32:09;23.50;99.90
6988;DHT22;3534;49.960;8.018;2023-08-20T06:34:35;23.50;99.90
6988;DHT22;3534;49.960;8.018;2023-08-20T06:37:02;23.50;99.90
6988;DHT22;3534;49.960;8.018;2023-08-20T06:39:31;23.60;99.90
6988;DHT22;3534;49.960;8.018;2023-08-20T06:41:57;23.60;99.90
6988;DHT22;3534;49.960;8.018;2023-08-20T06:44:24;23.70;99.90
6988;DHT22;3534;49.960;8.018;2023-08-20T06:46:51;23.70;99.90
6988;DHT22;3534;49.960;8.018;2023-08-20T06:49:17;23.70;99.90
6988;DHT22;3534;49.960;8.018;2023-08-20T06:51:44;23.80;99.90
6988;DHT22;3534;49.960;8.018;2023-08-20T06:54:11;23.80;99.90
6988;DHT22;3534;49.960;8.018;2023-08-20T06:56:39;23.80;99.90
6988;DHT22;3534;49.960;8.018;2023-08-20T06:59:05;23.80;99.90
6988;DHT22;3534;49.960;8.018;2023-08-20T07:01:32;23.80;99.90
6988;DHT22;3534;49.960;8.018;2023-08-20T07:03:59;23.90;99.90
6988;DHT22;3534;49.960;8.018;2023-08-20T07:06:26;23.90;99.90
6988;DHT22;3534;49.960;8.018;2023-08-20T07:08:53;24.00;99.90
6988;DHT22;3534;49.960;8.018;2023-08-20T07:11:20;24.00;99.90
6988;DHT22;3534;49.960;8.018;2023-08-20T07:13:48;24.00;99.90
6988;DHT22;3534;49.960;8.018;2023-08-20T07:16:14;24.10;99.90
6988;DHT22;3534;49.960;8.018;2023-08-20T07:18:41;24.10;99.90
6988;DHT22;3534;49.960;8.018;2023-08-20T07:21:08;24.10;99.90
6988;DHT22;3534;49.960;8.018;2023-08-20T07:23:34;24.20;99.90
6988;DHT22;3534;49.960;8.018;2023-08-20T07:26:05;24.30;99.90
6988;DHT22;3534;49.960;8.018;2023-08-20T07:28:33;24.30;99.90
6988;DHT22;3534;49.960;8.018;2023-08-20T07:31:14;24.40;99.90
6988;DHT22;3534;49.960;8.018;2023-08-20T07:33:41;24.40;99.90
6988;DHT22;3534;49.960;8.018;2023-08-20T07:36:11;24.40;99.90
6988;DHT22;3534;49.960;8.018;2023-08-20T07:38:38;24.50;99.90
6988;DHT22;3534;49.960;8.018;2023-08-20T07:41:08;24.60;99.90
6988;DHT22;3534;49.960;8.018;2023-08-20T07:43:35;24.60;99.90
6988;DHT22;3534;49.960;8.018;2023-08-20T07:46:03;24.70;99.90
6988;DHT22;3534;49.960;8.018;2023-08-20T07:48:31;24.70;99.90
6988;DHT22;3534;49.960;8.018;2023-08-20T07:50:58;24.70;99.90
6988;DHT22;3534;49.960;8.018;2023-08-20T07:53:25;24.80;99.90
6988;DHT22;3534;49.960;8.018;2023-08-20T07:55:51;24.80;99.90
6988;DHT22;3534;49.960;8.018;2023-08-20T07:58:18;24.90;99.90
6988;DHT22;3534;49.960;8.018;2023-08-20T08:00:45;24.90;99.90
6988;DHT22;3534;49.960;8.018;2023-08-20T08:03:12;25.00;99.90
6988;DHT22;3534;49.960;8.018;2023-08-20T08:05:41;25.00;99.90
6988;DHT22;3534;49.960;8.018;2023-08-20T08:08:08;25.10;99.90
6988;DHT22;3534;49.960;8.018;2023-08-20T08:10:34;25.10;99.90
6988;DHT22;3534;49.960;8.018;2023-08-20T08:13:01;25.10;99.90
6988;DHT22;3534;49.960;8.018;2023-08-20T08:15:28;25.20;99.90
6988;DHT22;3534;49.960;8.018;2023-08-20T08:17:55;25.20;99.90
6988;DHT22;3534;49.960;8.018;2023-08-20T08:20:22;25.30;99.90
6988;DHT22;3534;49.960;8.018;2023-08-20T08:22:50;25.30;99.90
6988;DHT22;3534;49.960;8.018;2023-08-20T08:25:17;25.40;99.90
6988;DHT22;3534;49.960;8.018;2023-08-20T08:27:44;25.40;99.90
6988;DHT22;3534;49.960;8.018;2023-08-20T08:30:11;25.50;99.90
6988;DHT22;3534;49.960;8.018;2023-08-20T08:32:39;25.60;99.90
6988;DHT22;3534;49.960;8.018;2023-08-20T08:35:07;25.60;99.90
6988;DHT22;3534;49.960;8.018;2023-08-20T08:37:34;25.70;99.90
6988;DHT22;3534;49.960;8.018;2023-08-20T08:40:02;25.70;99.90
6988;DHT22;3534;49.960;8.018;2023-08-20T08:42:31;25.80;99.90
6988;DHT22;3534;49.960;8.018;2023-08-20T08:44:59;25.80;99.90
6988;DHT22;3534;49.960;8.018;2023-08-20T08:47:26;25.90;99.90
6988;DHT22;3534;49.960;8.018;2023-08-20T08:49:55;25.90;99.90
6988;DHT22;3534;49.960;8.018;2023-08-20T08:52:23;26.00;99.90
6988;DHT22;3534;49.960;8.018;2023-08-20T08:54:50;26.00;99.90
6988;DHT22;3534;49.960;8.018;2023-08-20T08:57:18;26.10;99.90
6988;DHT22;3534;49.960;8.018;2023-08-20T08:59:45;26.10;99.90
6988;DHT22;3534;49.960;8.018;2023-08-20T09:02:12;26.20;99.90
6988;DHT22;3534;49.960;8.018;2023-08-20T09:04:40;26.20;99.90
6988;DHT22;3534;49.960;8.018;2023-08-20T09:07:12;26.30;99.90
6988;DHT22;3534;49.960;8.018;2023-08-20T09:09:42;26.30;99.90
6988;DHT22;3534;49.960;8.018;2023-08-20T09:12:12;26.40;99.90
6988;DHT22;3534;49.960;8.018;2023-08-20T09:14:45;26.40;99.90
6988;DHT22;3534;49.960;8.018;2023-08-20T09:17:12;26.50;99.90
6988;DHT22;3534;49.960;8.018;2023-08-20T09:19:39;26.50;99.90
6988;DHT22;3534;49.960;8.018;2023-08-20T09:22:05;26.60;99.90
6988;DHT22;3534;49.960;8.018;2023-08-20T09:24:38;26.60;99.90
6988;DHT22;3534;49.960;8.018;2023-08-20T09:27:06;26.60;99.90
6988;DHT22;3534;49.960;8.018;2023-08-20T09:29:34;26.70;99.90
6988;DHT22;3534;49.960;8.018;2023-08-20T09:32:14;26.70;99.90
6988;DHT22;3534;49.960;8.018;2023-08-20T09:34:41;26.80;99.90
6988;DHT22;3534;49.960;8.018;2023-08-20T09:37:08;26.80;99.90
6988;DHT22;3534;49.960;8.018;2023-08-20T09:39:35;26.80;99.90
6988;DHT22;3534;49.960;8.018;2023-08-20T09:42:02;26.80;99.90
6988;DHT22;3534;49.960;8.018;2023-08-20T09:44:35;26.90;99.90
6988;DHT22;3534;49.960;8.018;2023-08-20T09:47:05;26.90;99.90
6988;DHT22;3534;49.960;8.018;2023-08-20T09:49:53;27.00;99.90
6988;DHT22;3534;49.960;8.018;2023-08-20T09:52:24;27.10;99.90
6988;DHT22;3534;49.960;8.018;2023-08-20T09:54:59;27.10;99.90
6988;DHT22;3534;49.960;8.018;2023-08-20T09:57:32;27.10;99.90
6988;DHT22;3534;49.960;8.018;2023-08-20T10:00:00;27.20;99.90
6988;DHT22;3534;49.960;8.018;2023-08-20T10:02:27;27.30;99.90
6988;DHT22;3534;49.960;8.018;2023-08-20T10:04:55;27.30;99.90
6988;DHT22;3534;49.960;8.018;2023-08-20T10:07:22;27.40;99.90
6988;DHT22;3534;49.960;8.018;2023-08-20T10:09:51;27.40;99.90
6988;DHT22;3534;49.960;8.018;2023-08-20T10:12:18;27.50;99.90
6988;DHT22;3534;49.960;8.018;2023-08-20T10:14:45;27.50;99.90
6988;DHT22;3534;49.960;8.018;2023-08-20T10:17:12;27.60;99.90
6988;DHT22;3534;49.960;8.018;2023-08-20T10:19:41;27.60;99.90
6988;DHT22;3534;49.960;8.018;2023-08-20T10:22:09;27.70;99.90
6988;DHT22;3534;49.960;8.018;2023-08-20T10:24:48;27.80;99.90
6988;DHT22;3534;49.960;8.018;2023-08-20T10:27:24;27.80;99.90
6988;DHT22;3534;49.960;8.018;2023-08-20T10:29:52;27.80;99.90
6988;DHT22;3534;49.960;8.018;2023-08-20T10:32:19;27.90;99.90
6988;DHT22;3534;49.960;8.018;2023-08-20T10:34:50;27.90;99.90
6988;DHT22;3534;49.960;8.018;2023-08-20T10:37:26;28.00;99.90
6988;DHT22;3534;49.960;8.018;2023-08-20T10:39:54;28.00;99.90
6988;DHT22;3534;49.960;8.018;2023-08-20T10:42:22;28.10;99.90
6988;DHT22;3534;49.960;8.018;2023-08-20T10:44:58;28.10;99.90
6988;DHT22;3534;49.960;8.018;2023-08-20T10:47:25;28.20;99.90
6988;DHT22;3534;49.960;8.018;2023-08-20T10:49:52;28.20;99.90
6988;DHT22;3534;49.960;8.018;2023-08-20T10:52:22;28.30;99.90
6988;DHT22;3534;49.960;8.018;2023-08-20T10:54:50;28.30;99.90
6988;DHT22;3534;49.960;8.018;2023-08-20T10:57:17;28.40;99.90
6988;DHT22;3534;49.960;8.018;2023-08-20T10:59:56;28.40;99.90
6988;DHT22;3534;49.960;8.018;2023-08-20T11:02:24;28.40;99.90
6988;DHT22;3534;49.960;8.018;2023-08-20T11:04:51;28.50;99.90
6988;DHT22;3534;49.960;8.018;2023-08-20T11:07:18;28.50;99.90
6988;DHT22;3534;49.960;8.018;2023-08-20T11:09:47;28.50;99.90
6988;DHT22;3534;49.960;8.018;2023-08-20T11:12:15;28.60;99.90
6988;DHT22;3534;49.960;8.018;2023-08-20T11:14:42;28.70;99.90
6988;DHT22;3534;49.960;8.018;2023-08-20T11:17:09;28.70;99.90
6988;DHT22;3534;49.960;8.018;2023-08-20T11:19:36;28.80;99.90
6988;DHT22;3534;49.960;8.018;2023-08-20T11:22:03;28.90;99.90
6988;DHT22;3534;49.960;8.018;2023-08-20T11:24:30;28.90;99.90
6988;DHT22;3534;49.960;8.018;2023-08-20T11:26:58;29.00;99.90
6988;DHT22;3534;49.960;8.018;2023-08-20T11:29:26;29.00;99.90
6988;DHT22;3534;49.960;8.018;2023-08-20T11:31:52;29.10;99.90
6988;DHT22;3534;49.960;8.018;2023-08-20T11:34:20;29.10;99.90
6988;DHT22;3534;49.960;8.018;2023-08-20T11:36:47;29.20;99.90
6988;DHT22;3534;49.960;8.018;2023-08-20T11:39:14;29.20;99.90
6988;DHT22;3534;49.960;8.018;2023-08-20T11:41:41;29.30;99.90
6988;DHT22;3534;49.960;8.018;2023-08-20T11:44:09;29.30;99.90
6988;DHT22;3534;49.960;8.018;2023-08-20T11:46:42;29.40;99.90
6988;DHT22;3534;49.960;8.018;2023-08-20T11:49:10;29.50;99.90
6988;DHT22;3534;49.960;8.018;2023-08-20T11:51:38;29.60;99.90
6988;DHT22;3534;49.960;8.018;2023-08-20T11:54:12;29.60;99.90
6988;DHT22;3534;49.960;8.018;2023-08-20T11:56:47;29.70;99.90
6988;DHT22;3534;49.960;8.018;2023-08-20T11:59:16;29.80;99.90
6988;DHT22;3534;49.960;8.018;2023-08-20T12:01:47;29.90;99.90
6988;DHT22;3534;49.960;8.018;2023-08-20T12:04:15;30.00;99.90
6988;DHT22;3534;49.960;8.018;2023-08-20T12:06:42;30.20;99.90
6988;DHT22;3534;49.960;8.018;2023-08-20T12:09:19;30.30;99.90
6988;DHT22;3534;49.960;8.018;2023-08-20T12:11:48;30.30;99.90
6988;DHT22;3534;49.960;8.018;2023-08-20T12:14:16;30.40;99.90
6988;DHT22;3534;49.960;8.018;2023-08-20T12:16:43;30.50;99.90
6988;DHT22;3534;49.960;8.018;2023-08-20T12:19:10;30.60;99.90
6988;DHT22;3534;49.960;8.018;2023-08-20T12:21:37;30.70;99.90
6988;DHT22;3534;49.960;8.018;2023-08-20T12:24:04;30.90;99.90
6988;DHT22;3534;49.960;8.018;2023-08-20T12:26:31;31.10;99.90
6988;DHT22;3534;49.960;8.018;2023-08-20T12:28:58;31.30;99.90
6988;DHT22;3534;49.960;8.018;2023-08-20T12:31:26;31.50;99.90
6988;DHT22;3534;49.960;8.018;2023-08-20T12:33:53;31.90;99.90
6988;DHT22;3534;49.960;8.018;2023-08-20T12:36:19;32.20;99.90
6988;DHT22;3534;49.960;8.018;2023-08-20T12:38:46;32.60;99.90
6988;DHT22;3534;49.960;8.018;2023-08-20T12:41:13;33.10;99.90
6988;DHT22;3534;49.960;8.018;2023-08-20T12:43:40;33.50;99.90
6988;DHT22;3534;49.960;8.018;2023-08-20T12:46:07;34.00;99.90
6988;DHT22;3534;49.960;8.018;2023-08-20T12:48:35;34.50;99.90
6988;DHT22;3534;49.960;8.018;2023-08-20T12:51:02;34.90;99.90
6988;DHT22;3534;49.960;8.018;2023-08-20T12:53:29;35.20;99.90
6988;DHT22;3534;49.960;8.018;2023-08-20T12:55:55;35.60;99.90
6988;DHT22;3534;49.960;8.018;2023-08-20T12:58:22;35.70;99.90
6988;DHT22;3534;49.960;8.018;2023-08-20T13:00:50;36.00;99.90
6988;DHT22;3534;49.960;8.018;2023-08-20T13:03:17;36.40;99.90
6988;DHT22;3534;49.960;8.018;2023-08-20T13:05:46;36.70;99.90
6988;DHT22;3534;49.960;8.018;2023-08-20T13:08:13;37.10;99.90
6988;DHT22;3534;49.960;8.018;2023-08-20T13:10:40;37.30;99.90
6988;DHT22;3534;49.960;8.018;2023-08-20T13:13:10;37.00;99.90
6988;DHT22;3534;49.960;8.018;2023-08-20T13:18:07;36.60;99.90
6988;DHT22;3534;49.960;8.018;2023-08-20T13:20:34;36.90;99.90
6988;DHT22;3534;49.960;8.018;2023-08-20T13:23:02;37.40;99.90
6988;DHT22;3534;49.960;8.018;2023-08-20T13:25:29;37.80;99.80
6988;DHT22;3534;49.960;8.018;2023-08-20T13:27:56;38.20;98.40
6988;DHT22;3534;49.960;8.018;2023-08-20T13:30:23;38.50;97.10
6988;DHT22;3534;49.960;8.018;2023-08-20T13:32:49;38.70;97.50
6988;DHT22;3534;49.960;8.018;2023-08-20T13:35:16;38.90;96.60
6988;DHT22;3534;49.960;8.018;2023-08-20T13:37:43;39.30;95.90
6988;DHT22;3534;49.960;8.018;2023-08-20T13:40:12;39.40;95.00
6988;DHT22;3534;49.960;8.018;2023-08-20T13:42:39;39.50;94.40
6988;DHT22;3534;49.960;8.018;2023-08-20T13:45:07;39.10;93.70
6988;DHT22;3534;49.960;8.018;2023-08-20T13:47:33;38.70;93.80
6988;DHT22;3534;49.960;8.018;2023-08-20T13:50:00;38.90;93.50
6988;DHT22;3534;49.960;8.018;2023-08-20T13:52:28;39.30;92.90
6988;DHT22;3534;49.960;8.018;2023-08-20T13:54:55;39.80;91.40
6988;DHT22;3534;49.960;8.018;2023-08-20T13:57:23;40.20;91.80
6988;DHT22;3534;49.960;8.018;2023-08-20T13:59:50;40.40;90.50
6988;DHT22;3534;49.960;8.018;2023-08-20T14:02:17;40.00;90.50
6988;DHT22;3534;49.960;8.018;2023-08-20T14:04:43;39.90;90.20
6988;DHT22;3534;49.960;8.018;2023-08-20T14:07:10;39.80;90.60
6988;DHT22;3534;49.960;8.018;2023-08-20T14:09:37;40.00;90.20
6988;DHT22;3534;49.960;8.018;2023-08-20T14:12:06;40.50;89.80
6988;DHT22;3534;49.960;8.018;2023-08-20T14:14:34;40.90;87.80
6988;DHT22;3534;49.960;8.018;2023-08-20T14:17:00;41.10;86.80
6988;DHT22;3534;49.960;8.018;2023-08-20T14:19:28;41.20;85.40
6988;DHT22;3534;49.960;8.018;2023-08-20T14:21:55;40.90;84.10
6988;DHT22;3534;49.960;8.018;2023-08-20T14:24:21;40.70;86.20
6988;DHT22;3534;49.960;8.018;2023-08-20T14:26:48;40.80;84.40
6988;DHT22;3534;49.960;8.018;2023-08-20T14:29:15;41.10;83.50
6988;DHT22;3534;49.960;8.018;2023-08-20T14:31:43;41.40;82.90
6988;DHT22;3534;49.960;8.018;2023-08-20T14:34:09;41.70;81.40
6988;DHT22;3534;49.960;8.018;2023-08-20T14:36:36;42.10;80.20
6988;DHT22;3534;49.960;8.018;2023-08-20T14:39:06;42.40;82.20
6988;DHT22;3534;49.960;8.018;2023-08-20T14:41:33;42.50;81.00
6988;DHT22;3534;49.960;8.018;2023-08-20T14:43:59;42.70;80.00
6988;DHT22;3534;49.960;8.018;2023-08-20T14:46:26;43.10;82.80
6988;DHT22;3534;49.960;8.018;2023-08-20T14:48:54;43.30;77.90
6988;DHT22;3534;49.960;8.018;2023-08-20T14:51:21;43.60;75.40
6988;DHT22;3534;49.960;8.018;2023-08-20T14:53:48;43.70;74.10
6988;DHT22;3534;49.960;8.018;2023-08-20T14:56:14;43.90;72.70
6988;DHT22;3534;49.960;8.018;2023-08-20T14:58:41;44.00;72.20
6988;DHT22;3534;49.960;8.018;2023-08-20T15:01:08;44.10;71.00
6988;DHT22;3534;49.960;8.018;2023-08-20T15:03:35;44.30;70.50
6988;DHT22;3534;49.960;8.018;2023-08-20T15:06:03;44.30;69.90
6988;DHT22;3534;49.960;8.018;2023-08-20T15:08:30;44.40;71.60
6988;DHT22;3534;49.960;8.018;2023-08-20T15:10:57;44.40;69.20
6988;DHT22;3534;49.960;8.018;2023-08-20T15:13:26;44.40;66.80
6988;DHT22;3534;49.960;8.018;2023-08-20T15:15:53;44.40;66.70
6988;DHT22;3534;49.960;8.018;2023-08-20T15:18:20;44.50;67.70
6988;DHT22;3534;49.960;8.018;2023-08-20T15:20:53;44.50;65.80
6988;DHT22;3534;49.960;8.018;2023-08-20T15:23:23;44.40;67.60
6988;DHT22;3534;49.960;8.018;2023-08-20T15:25:51;44.40;66.00
6988;DHT22;3534;49.960;8.018;2023-08-20T15:28:18;44.00;67.10
6988;DHT22;3534;49.960;8.018;2023-08-20T15:30:45;43.60;68.20
6988;DHT22;3534;49.960;8.018;2023-08-20T15:33:11;43.70;69.90
6988;DHT22;3534;49.960;8.018;2023-08-20T15:35:39;43.90;67.80
6988;DHT22;3534;49.960;8.018;2023-08-20T15:38:06;44.00;69.10
6988;DHT22;3534;49.960;8.018;2023-08-20T15:40:34;44.00;68.40
6988;DHT22;3534;49.960;8.018;2023-08-20T15:43:00;44.00;67.00
6988;DHT22;3534;49.960;8.018;2023-08-20T15:45:28;44.10;70.10
6988;DHT22;3534;49.960;8.018;2023-08-20T15:47:55;44.10;69.10
6988;DHT22;3534;49.960;8.018;2023-08-20T15:50:21;43.80;69.70
6988;DHT22;3534;49.960;8.018;2023-08-20T15:52:48;43.60;68.20
6988;DHT22;3534;49.960;8.018;2023-08-20T15:55:15;43.30;65.90
6988;DHT22;3534;49.960;8.018;2023-08-20T15:57:43;43.00;67.80
6988;DHT22;3534;49.960;8.018;2023-08-20T16:00:11;42.70;67.90
6988;DHT22;3534;49.960;8.018;2023-08-20T16:02:40;42.40;66.60
6988;DHT22;3534;49.960;8.018;2023-08-20T16:05:08;42.00;67.00
6988;DHT22;3534;49.960;8.018;2023-08-20T16:07:35;42.10;71.80
6988;DHT22;3534;49.960;8.018;2023-08-20T16:10:02;42.30;69.60